sensor_id;sensor_type;location;lat;lon;timestamp;temperature;humidity
41722;DHT22;27407;24.142;-110.310;2024-03-02T00:00:30;28.10;99.90
41722;DHT22;27407;24.142;-110.310;2024-03-02T00:02:57;28.20;99.90
41722;DHT22;27407;24.142;-110.310;2024-03-02T00:05:23;28.20;99.90
41722;DHT22;27407;24.142;-110.310;2024-03-02T00:07:55;28.10;99.90
41722;DHT22;27407;24.142;-110.310;2024-03-02T00:10:42;28.40;99.90
41722;DHT22;27407;24.142;-110.310;2024-03-02T00:13:09;28.40;99.90
41722;DHT22;27407;24.142;-110.310;2024-03-02T00:15:45;28.20;99.90
41722;DHT22;27407;24.142;-110.310;2024-03-02T00:18:34;28.20;99.90
41722;DHT22;27407;24.142;-110.310;2024-03-02T00:21:00;27.80;99.90
41722;DHT22;27407;24.142;-110.310;2024-03-02T00:23:30;27.80;99.90
41722;DHT22;27407;24.142;-110.310;2024-03-02T00:25:57;27.90;99.90
41722;DHT22;27407;24.142;-110.310;2024-03-02T00:28:31;28.00;99.90
41722;DHT22;27407;24.142;-110.310;2024-03-02T00:31:05;28.10;99.90
41722;DHT22;27407;24.142;-110.310;2024-03-02T00:33:47;28.60;99.90
41722;DHT22;27407;24.142;-110.310;2024-03-02T00:36:22;29.20;99.90
41722;DHT22;27407;24.142;-110.310;2024-03-02T00:38:52;29.70;99.90
41722;DHT22;27407;24.142;-110.310;2024-03-02T00:41:32;30.10;99.90
41722;DHT22;27407;24.142;-110.310;2024-03-02T00:44:17;29.90;99.90
41722;DHT22;27407;24.142;-110.310;2024-03-02T00:46:45;29.20;99.90
41722;DHT22;27407;24.142;-110.310;2024-03-02T00:51:39;29.30;99.90
41722;DHT22;27407;24.142;-110.310;2024-03-02T00:54:07;29.20;99.90
41722;DHT22;27407;24.142;-110.310;2024-03-02T00:56:34;28.80;99.90
41722;DHT22;27407;24.142;-110.310;2024-03-02T00:59:01;28.00;99.90
41722;DHT22;27407;24.142;-110.310;2024-03-02T01:01:28;27.60;99.90
41722;DHT22;27407;24.142;-110.310;2024-03-02T01:03:55;27.30;99.90
41722;DHT22;27407;24.142;-110.310;2024-03-02T01:06:21;27.00;99.90
41722;DHT22;27407;24.142;-110.310;2024-03-02T01:08:48;26.90;99.90
41722;DHT22;27407;24.142;-110.310;2024-03-02T01:11:17;26.70;99.90
41722;DHT22;27407;24.142;-110.310;2024-03-02T01:13:50;26.70;99.90
41722;DHT22;27407;24.142;-110.310;2024-03-02T01:16:17;26.40;99.90
41722;DHT22;27407;24.142;-110.310;2024-03-02T01:18:44;26.20;99.90
41722;DHT22;27407;24.142;-110.310;2024-03-02T01:21:11;25.80;99.90
41722;DHT22;27407;24.142;-110.310;2024-03-02T01:23:37;25.40;99.90
41722;DHT22;27407;24.142;-110.310;2024-03-02T01:26:04;25.10;99.90
41722;DHT22;27407;24.142;-110.310;2024-03-02T01:28:31;24.90;99.90
41722;DHT22;27407;24.142;-110.310;2024-03-02T01:30:58;24.80;99.90
41722;DHT22;27407;24.142;-110.310;2024-03-02T01:33:25;24.60;99.90
41722;DHT22;27407;24.142;-110.310;2024-03-02T01:35:51;24.50;99.90
41722;DHT22;27407;24.142;-110.310;2024-03-02T01:38:18;24.40;99.90
41722;DHT22;27407;24.142;-110.310;2024-03-02T01:40:45;24.30;99.90
41722;DHT22;27407;24.142;-110.310;2024-03-02T01:43:12;24.20;99.90
41722;DHT22;27407;24.142;-110.310;2024-03-02T01:45:38;24.00;99.90
41722;DHT22;27407;24.142;-110.310;2024-03-02T01:48:06;23.90;99.90
41722;DHT22;27407;24.142;-110.310;2024-03-02T01:50:33;23.80;99.90
41722;DHT22;27407;24.142;-110.310;2024-03-02T01:53:00;23.70;99.90
41722;DHT22;27407;24.142;-110.310;2024-03-02T01:55:28;23.70;99.90
41722;DHT22;27407;24.142;-110.310;2024-03-02T01:57:56;23.70;99.90
41722;DHT22;27407;24.142;-110.310;2024-03-02T02:00:23;23.60;99.90
41722;DHT22;27407;24.142;-110.310;2024-03-02T02:02:52;23.50;99.90
41722;DHT22;27407;24.142;-110.310;2024-03-02T02:05:19;23.40;99.90
41722;DHT22;27407;24.142;-110.310;2024-03-02T02:07:46;23.40;99.90
41722;DHT22;27407;24.142;-110.310;2024-03-02T02:10:13;23.50;99.90
41722;DHT22;27407;24.142;-110.310;2024-03-02T02:12:40;23.40;99.90
41722;DHT22;27407;24.142;-110.310;2024-03-02T02:15:27;23.30;99.90
41722;DHT22;27407;24.142;-110.310;2024-03-02T02:17:55;23.30;99.90
41722;DHT22;27407;24.142;-110.310;2024-03-02T02:20:22;23.30;99.90
41722;DHT22;27407;24.142;-110.310;2024-03-02T02:23:04;23.20;99.90
41722;DHT22;27407;24.142;-110.310;2024-03-02T02:25:33;23.10;99.90
41722;DHT22;27407;24.142;-110.310;2024-03-02T02:28:00;23.00;99.90
41722;DHT22;27407;24.142;-110.310;2024-03-02T02:30:28;22.90;99.90
41722;DHT22;27407;24.142;-110.310;2024-03-02T02:32:55;22.90;99.90
41722;DHT22;27407;24.142;-110.310;2024-03-02T02:35:22;22.90;99.90
41722;DHT22;27407;24.142;-110.310;2024-03-02T02:37:51;22.80;99.90
41722;DHT22;27407;24.142;-110.310;2024-03-02T02:40:18;22.70;99.90
41722;DHT22;27407;24.142;-110.310;2024-03-02T02:42:47;22.60;99.90
41722;DHT22;27407;24.142;-110.310;2024-03-02T02:45:14;22.50;99.90
41722;DHT22;27407;24.142;-110.310;2024-03-02T02:47:44;22.40;99.90
41722;DHT22;27407;24.142;-110.310;2024-03-02T02:50:12;22.30;99.90
41722;DHT22;27407;24.142;-110.310;2024-03-02T02:52:40;22.30;99.90
41722;DHT22;27407;24.142;-110.310;2024-03-02T02:55:11;22.30;99.90
41722;DHT22;27407;24.142;-110.310;2024-03-02T02:57:40;22.30;99.90
41722;DHT22;27407;24.142;-110.310;2024-03-02T03:00:13;22.30;99.90
41722;DHT22;27407;24.142;-110.310;2024-03-02T03:02:46;22.40;99.90
41722;DHT22;27407;24.142;-110.310;2024-03-02T03:05:14;22.40;99.90
41722;DHT22;27407;24.142;-110.310;2024-03-02T03:07:41;22.50;99.90
41722;DHT22;27407;24.142;-110.310;2024-03-02T03:10:10;22.40;99.90
41722;DHT22;27407;24.142;-110.310;2024-03-02T03:12:36;22.40;99.90
41722;DHT22;27407;24.142;-110.310;2024-03-02T03:15:04;22.40;99.90
41722;DHT22;27407;24.142;-110.310;2024-03-02T03:17:30;22.30;99.90
41722;DHT22;27407;24.142;-110.310;2024-03-02T03:19:57;22.20;99.90
41722;DHT22;27407;24.142;-110.310;2024-03-02T03:22:24;22.20;99.90
41722;DHT22;27407;24.142;-110.310;2024-03-02T03:24:50;22.10;99.90
41722;DHT22;27407;24.142;-110.310;2024-03-02T03:27:17;22.10;99.90
41722;DHT22;27407;24.142;-110.310;2024-03-02T03:29:44;22.10;99.90
41722;DHT22;27407;24.142;-110.310;2024-03-02T03:32:10;22.10;99.90
41722;DHT22;27407;24.142;-110.310;2024-03-02T03:34:37;22.10;99.90
41722;DHT22;27407;24.142;-110.310;2024-03-02T03:37:04;22.00;99.90
41722;DHT22;27407;24.142;-110.310;2024-03-02T03:39:30;21.90;99.90
41722;DHT22;27407;24.142;-110.310;2024-03-02T03:41:57;21.90;99.90
41722;DHT22;27407;24.142;-110.310;2024-03-02T03:44:23;21.80;99.90
41722;DHT22;27407;24.142;-110.310;2024-03-02T03:46:50;21.80;99.90
41722;DHT22;27407;24.142;-110.310;2024-03-02T03:49:17;21.80;99.90
41722;DHT22;27407;24.142;-110.310;2024-03-02T03:51:43;21.90;99.90
41722;DHT22;27407;24.142;-110.310;2024-03-02T03:54:10;21.90;99.90
41722;DHT22;27407;24.142;-110.310;2024-03-02T03:56:37;21.90;99.90
41722;DHT22;27407;24.142;-110.310;2024-03-02T03:59:04;21.90;99.90
41722;DHT22;27407;24.142;-110.310;2024-03-02T04:01:31;21.90;99.90
41722;DHT22;27407;24.142;-110.310;2024-03-02T04:03:58;21.80;99.90
41722;DHT22;27407;24.142;-110.310;2024-03-02T04:06:24;21.70;99.90
41722;DHT22;27407;24.142;-110.310;2024-03-02T04:08:51;21.70;99.90
41722;DHT22;27407;24.142;-110.310;2024-03-02T04:11:18;21.60;99.90
41722;DHT22;27407;24.142;-110.310;2024-03-02T04:13:44;21.50;99.90
41722;DHT22;27407;24.142;-110.310;2024-03-02T04:16:11;21.50;99.90
41722;DHT22;27407;24.142;-110.310;2024-03-02T04:18:38;21.50;99.90
41722;DHT22;27407;24.142;-110.310;2024-03-02T04:21:05;21.40;99.90
41722;DHT22;27407;24.142;-110.310;2024-03-02T04:23:32;21.30;99.90
41722;DHT22;27407;24.142;-110.310;2024-03-02T04:25:59;21.40;99.90
41722;DHT22;27407;24.142;-110.310;2024-03-02T04:28:25;21.40;99.90
41722;DHT22;27407;24.142;-110.310;2024-03-02T04:30:52;21.40;99.90
41722;DHT22;27407;24.142;-110.310;2024-03-02T04:33:18;21.40;99.90
41722;DHT22;27407;24.142;-110.310;2024-03-02T04:35:45;21.40;99.90
41722;DHT22;27407;24.142;-110.310;2024-03-02T04:38:12;21.30;99.90
41722;DHT22;27407;24.142;-110.310;2024-03-02T04:40:39;21.30;99.90
41722;DHT22;27407;24.142;-110.310;2024-03-02T04:43:05;21.20;99.90
41722;DHT22;27407;24.142;-110.310;2024-03-02T04:45:32;21.20;99.90
41722;DHT22;27407;24.142;-110.310;2024-03-02T04:47:58;21.10;99.90
41722;DHT22;27407;24.142;-110.310;2024-03-02T04:50:25;21.20;99.90
41722;DHT22;27407;24.142;-110.310;2024-03-02T04:52:52;21.10;99.90
41722;DHT22;27407;24.142;-110.310;2024-03-02T04:55:18;21.10;99.90
41722;DHT22;27407;24.142;-110.310;2024-03-02T04:57:45;21.00;99.90
41722;DHT22;27407;24.142;-110.310;2024-03-02T05:00:12;21.00;99.90
41722;DHT22;27407;24.142;-110.310;2024-03-02T05:02:39;21.00;99.90
41722;DHT22;27407;24.142;-110.310;2024-03-02T05:05:05;21.00;99.90
41722;DHT22;27407;24.142;-110.310;2024-03-02T05:07:32;21.00;99.90
41722;DHT22;27407;24.142;-110.310;2024-03-02T05:09:59;20.90;99.90
41722;DHT22;27407;24.142;-110.310;2024-03-02T05:12:25;20.90;99.90
41722;DHT22;27407;24.142;-110.310;2024-03-02T05:15:21;20.80;99.90
41722;DHT22;27407;24.142;-110.310;2024-03-02T05:17:47;20.70;99.90
41722;DHT22;27407;24.142;-110.310;2024-03-02T05:20:14;20.60;99.90
41722;DHT22;27407;24.142;-110.310;2024-03-02T05:22:40;20.50;99.90
41722;DHT22;27407;24.142;-110.310;2024-03-02T05:25:07;20.50;99.90
41722;DHT22;27407;24.142;-110.310;2024-03-02T05:27:35;20.40;99.90
41722;DHT22;27407;24.142;-110.310;2024-03-02T05:30:02;20.30;99.90
41722;DHT22;27407;24.142;-110.310;2024-03-02T05:32:29;20.10;99.90
41722;DHT22;27407;24.142;-110.310;2024-03-02T05:34:56;19.90;99.90
41722;DHT22;27407;24.142;-110.310;2024-03-02T05:37:22;19.90;99.90
41722;DHT22;27407;24.142;-110.310;2024-03-02T05:39:49;19.90;99.90
41722;DHT22;27407;24.142;-110.310;2024-03-02T05:42:16;19.90;99.90
41722;DHT22;27407;24.142;-110.310;2024-03-02T05:44:45;19.90;99.90
41722;DHT22;27407;24.142;-110.310;2024-03-02T05:47:12;19.90;99.90
41722;DHT22;27407;24.142;-110.310;2024-03-02T05:49:38;20.00;99.90
41722;DHT22;27407;24.142;-110.310;2024-03-02T05:52:05;19.90;99.90
41722;DHT22;27407;24.142;-110.310;2024-03-02T05:54:32;19.90;99.90
41722;DHT22;27407;24.142;-110.310;2024-03-02T05:56:59;19.80;99.90
41722;DHT22;27407;24.142;-110.310;2024-03-02T05:59:42;19.70;99.90
41722;DHT22;27407;24.142;-110.310;2024-03-02T06:02:10;19.60;99.90
41722;DHT22;27407;24.142;-110.310;2024-03-02T06:04:36;19.60;99.90
41722;DHT22;27407;24.142;-110.310;2024-03-02T06:07:03;19.50;99.90
41722;DHT22;27407;24.142;-110.310;2024-03-02T06:09:29;19.50;99.90
41722;DHT22;27407;24.142;-110.310;2024-03-02T06:11:56;19.40;99.90
41722;DHT22;27407;24.142;-110.310;2024-03-02T06:14:22;19.30;99.90
41722;DHT22;27407;24.142;-110.310;2024-03-02T06:16:49;19.30;99.90
41722;DHT22;27407;24.142;-110.310;2024-03-02T06:19:16;19.30;99.90
41722;DHT22;27407;24.142;-110.310;2024-03-02T06:21:42;19.20;99.90
41722;DHT22;27407;24.142;-110.310;2024-03-02T06:24:09;19.20;99.90
41722;DHT22;27407;24.142;-110.310;2024-03-02T06:26:35;19.10;99.90
41722;DHT22;27407;24.142;-110.310;2024-03-02T06:29:02;19.10;99.90
41722;DHT22;27407;24.142;-110.310;2024-03-02T06:31:29;19.10;99.90
41722;DHT22;27407;24.142;-110.310;2024-03-02T06:33:56;19.00;99.90
41722;DHT22;27407;24.142;-110.310;2024-03-02T06:36:22;19.00;99.90
41722;DHT22;27407;24.142;-110.310;2024-03-02T06:38:49;19.00;99.90
41722;DHT22;27407;24.142;-110.310;2024-03-02T06:41:16;19.00;99.90
41722;DHT22;27407;24.142;-110.310;2024-03-02T06:43:42;19.00;99.90
41722;DHT22;27407;24.142;-110.310;2024-03-02T06:46:09;18.90;99.90
41722;DHT22;27407;24.142;-110.310;2024-03-02T06:48:35;18.90;99.90
41722;DHT22;27407;24.142;-110.310;2024-03-02T06:51:02;19.00;99.90
41722;DHT22;27407;24.142;-110.310;2024-03-02T06:53:28;18.90;99.90
41722;DHT22;27407;24.142;-110.310;2024-03-02T06:55:56;18.90;99.90
41722;DHT22;27407;24.142;-110.310;2024-03-02T06:58:22;18.90;99.90
41722;DHT22;27407;24.142;-110.310;2024-03-02T07:00:49;18.80;99.90
41722;DHT22;27407;24.142;-110.310;2024-03-02T07:03:19;18.70;99.90
41722;DHT22;27407;24.142;-110.310;2024-03-02T07:05:48;18.70;99.90
41722;DHT22;27407;24.142;-110.310;2024-03-02T07:08:14;18.60;99.90
41722;DHT22;27407;24.142;-110.310;2024-03-02T07:10:42;18.60;99.90
41722;DHT22;27407;24.142;-110.310;2024-03-02T07:13:09;18.60;99.90
41722;DHT22;27407;24.142;-110.310;2024-03-02T07:15:39;18.60;99.90
41722;DHT22;27407;24.142;-110.310;2024-03-02T07:18:11;18.60;99.90
41722;DHT22;27407;24.142;-110.310;2024-03-02T07:20:40;18.60;99.90
41722;DHT22;27407;24.142;-110.310;2024-03-02T07:23:09;18.60;99.90
41722;DHT22;27407;24.142;-110.310;2024-03-02T07:25:36;18.60;99.90
41722;DHT22;27407;24.142;-110.310;2024-03-02T07:28:05;18.50;99.90
41722;DHT22;27407;24.142;-110.310;2024-03-02T07:30:35;18.50;99.90
41722;DHT22;27407;24.142;-110.310;2024-03-02T07:33:22;18.50;99.90
41722;DHT22;27407;24.142;-110.310;2024-03-02T07:35:51;18.40;99.90
41722;DHT22;27407;24.142;-110.310;2024-03-02T07:38:18;18.30;99.90
41722;DHT22;27407;24.142;-110.310;2024-03-02T07:40:45;18.20;99.90
41722;DHT22;27407;24.142;-110.310;2024-03-02T07:43:14;18.20;99.90
41722;DHT22;27407;24.142;-110.310;2024-03-02T07:45:41;18.20;99.90
41722;DHT22;27407;24.142;-110.310;2024-03-02T07:48:08;18.20;99.90
41722;DHT22;27407;24.142;-110.310;2024-03-02T07:50:35;18.20;99.90
41722;DHT22;27407;24.142;-110.310;2024-03-02T07:53:08;18.10;99.90
41722;DHT22;27407;24.142;-110.310;2024-03-02T07:55:36;18.10;99.90
41722;DHT22;27407;24.142;-110.310;2024-03-02T07:58:03;18.10;99.90
41722;DHT22;27407;24.142;-110.310;2024-03-02T08:00:30;18.00;99.90
41722;DHT22;27407;24.142;-110.310;2024-03-02T08:02:56;18.00;99.90
41722;DHT22;27407;24.142;-110.310;2024-03-02T08:05:25;18.00;99.90
41722;DHT22;27407;24.142;-110.310;2024-03-02T08:07:51;18.00;99.90
41722;DHT22;27407;24.142;-110.310;2024-03-02T08:10:19;18.00;99.90
41722;DHT22;27407;24.142;-110.310;2024-03-02T08:12:45;18.00;99.90
41722;DHT22;27407;24.142;-110.310;2024-03-02T08:15:12;18.00;99.90
41722;DHT22;27407;24.142;-110.310;2024-03-02T08:17:40;18.00;99.90
41722;DHT22;27407;24.142;-110.310;2024-03-02T08:20:14;17.90;99.90
41722;DHT22;27407;24.142;-110.310;2024-03-02T08:22:41;18.00;99.90
41722;DHT22;27407;24.142;-110.310;2024-03-02T08:25:08;17.90;99.90
41722;DHT22;27407;24.142;-110.310;2024-03-02T08:27:39;17.90;99.90
41722;DHT22;27407;24.142;-110.310;2024-03-02T08:30:06;17.80;99.90
41722;DHT22;27407;24.142;-110.310;2024-03-02T08:32:34;17.90;99.90
41722;DHT22;27407;24.142;-110.310;2024-03-02T08:35:01;17.80;99.90
41722;DHT22;27407;24.142;-110.310;2024-03-02T08:37:28;17.80;99.90
41722;DHT22;27407;24.142;-110.310;2024-03-02T08:39:55;17.80;99.90
41722;DHT22;27407;24.142;-110.310;2024-03-02T08:42:22;17.80;99.90
41722;DHT22;27407;24.142;-110.310;2024-03-02T08:44:49;17.80;99.90
41722;DHT22;27407;24.142;-110.310;2024-03-02T08:47:16;17.80;99.90
41722;DHT22;27407;24.142;-110.310;2024-03-02T08:49:43;17.80;99.90
41722;DHT22;27407;24.142;-110.310;2024-03-02T08:52:10;17.70;99.90
41722;DHT22;27407;24.142;-110.310;2024-03-02T08:54:36;17.70;99.90
41722;DHT22;27407;24.142;-110.310;2024-03-02T08:57:04;17.70;99.90
41722;DHT22;27407;24.142;-110.310;2024-03-02T08:59:30;17.70;99.90
41722;DHT22;27407;24.142;-110.310;2024-03-02T09:01:58;17.70;99.90
41722;DHT22;27407;24.142;-110.310;2024-03-02T09:04:25;17.60;99.90
41722;DHT22;27407;24.142;-110.310;2024-03-02T09:06:52;17.50;99.90
41722;DHT22;27407;24.142;-110.310;2024-03-02T09:09:19;17.50;99.90
41722;DHT22;27407;24.142;-110.310;2024-03-02T09:11:46;17.50;99.90
41722;DHT22;27407;24.142;-110.310;2024-03-02T09:14:13;17.50;99.90
41722;DHT22;27407;24.142;-110.310;2024-03-02T09:16:41;17.40;99.90
41722;DHT22;27407;24.142;-110.310;2024-03-02T09:19:07;17.40;99.90
41722;DHT22;27407;24.142;-110.310;2024-03-02T09:21:35;17.30;99.90
41722;DHT22;27407;24.142;-110.310;2024-03-02T09:24:02;17.20;99.90
41722;DHT22;27407;24.142;-110.310;2024-03-02T09:26:29;17.10;99.90
41722;DHT22;27407;24.142;-110.310;2024-03-02T09:28:56;16.80;99.90
41722;DHT22;27407;24.142;-110.310;2024-03-02T09:31:23;16.70;99.90
41722;DHT22;27407;24.142;-110.310;2024-03-02T09:33:50;16.60;99.90
41722;DHT22;27407;24.142;-110.310;2024-03-02T09:36:22;16.50;99.90
41722;DHT22;27407;24.142;-110.310;2024-03-02T09:38:49;16.50;99.90
41722;DHT22;27407;24.142;-110.310;2024-03-02T09:41:16;16.40;99.90
41722;DHT22;27407;24.142;-110.310;2024-03-02T09:43:42;16.30;99.90
41722;DHT22;27407;24.142;-110.310;2024-03-02T09:46:10;16.30;99.90
41722;DHT22;27407;24.142;-110.310;2024-03-02T09:48:37;16.20;99.90
41722;DHT22;27407;24.142;-110.310;2024-03-02T09:51:05;16.10;99.90
41722;DHT22;27407;24.142;-110.310;2024-03-02T09:53:33;16.00;99.90
41722;DHT22;27407;24.142;-110.310;2024-03-02T09:56:00;16.00;99.90
41722;DHT22;27407;24.142;-110.310;2024-03-02T09:58:27;15.90;99.90
41722;DHT22;27407;24.142;-110.310;2024-03-02T10:00:54;16.00;99.90
41722;DHT22;27407;24.142;-110.310;2024-03-02T10:03:23;15.90;99.90
41722;DHT22;27407;24.142;-110.310;2024-03-02T10:05:53;15.80;99.90
41722;DHT22;27407;24.142;-110.310;2024-03-02T10:08:19;15.70;99.90
41722;DHT22;27407;24.142;-110.310;2024-03-02T10:10:46;15.60;99.90
41722;DHT22;27407;24.142;-110.310;2024-03-02T10:13:13;15.60;99.90
41722;DHT22;27407;24.142;-110.310;2024-03-02T10:15:41;15.60;99.90
41722;DHT22;27407;24.142;-110.310;2024-03-02T10:18:12;15.50;99.90
41722;DHT22;27407;24.142;-110.310;2024-03-02T10:20:39;15.40;99.90
41722;DHT22;27407;24.142;-110.310;2024-03-02T10:23:14;15.40;99.90
41722;DHT22;27407;24.142;-110.310;2024-03-02T10:25:43;15.40;99.90
41722;DHT22;27407;24.142;-110.310;2024-03-02T10:28:09;15.30;99.90
41722;DHT22;27407;24.142;-110.310;2024-03-02T10:30:37;15.30;99.90
41722;DHT22;27407;24.142;-110.310;2024-03-02T10:33:05;15.30;99.90
41722;DHT22;27407;24.142;-110.310;2024-03-02T10:35:33;15.20;99.90
41722;DHT22;27407;24.142;-110.310;2024-03-02T10:38:04;15.10;99.90
41722;DHT22;27407;24.142;-110.310;2024-03-02T10:40:32;15.20;99.90
41722;DHT22;27407;24.142;-110.310;2024-03-02T10:43:01;15.10;99.90
41722;DHT22;27407;24.142;-110.310;2024-03-02T10:45:29;15.10;99.90
41722;DHT22;27407;24.142;-110.310;2024-03-02T10:47:57;15.10;99.90
41722;DHT22;27407;24.142;-110.310;2024-03-02T10:50:25;15.00;99.90
41722;DHT22;27407;24.142;-110.310;2024-03-02T10:52:51;15.00;99.90
41722;DHT22;27407;24.142;-110.310;2024-03-02T10:55:18;14.90;99.90
41722;DHT22;27407;24.142;-110.310;2024-03-02T10:57:52;14.80;99.90
41722;DHT22;27407;24.142;-110.310;2024-03-02T11:00:20;14.80;99.90
41722;DHT22;27407;24.142;-110.310;2024-03-02T11:02:57;14.80;99.90
41722;DHT22;27407;24.142;-110.310;2024-03-02T11:05:27;14.80;99.90
41722;DHT22;27407;24.142;-110.310;2024-03-02T11:08:01;14.80;99.90
41722;DHT22;27407;24.142;-110.310;2024-03-02T11:10:51;14.70;99.90
41722;DHT22;27407;24.142;-110.310;2024-03-02T11:13:24;14.60;99.90
41722;DHT22;27407;24.142;-110.310;2024-03-02T11:15:55;14.60;99.90
41722;DHT22;27407;24.142;-110.310;2024-03-02T11:18:23;14.60;99.90
41722;DHT22;27407;24.142;-110.310;2024-03-02T11:20:50;14.50;99.90
41722;DHT22;27407;24.142;-110.310;2024-03-02T11:23:17;14.50;99.90
41722;DHT22;27407;24.142;-110.310;2024-03-02T11:25:44;14.60;99.90
41722;DHT22;27407;24.142;-110.310;2024-03-02T11:28:10;14.60;99.90
41722;DHT22;27407;24.142;-110.310;2024-03-02T11:33:05;14.50;99.90
41722;DHT22;27407;24.142;-110.310;2024-03-02T11:35:41;14.40;99.90
41722;DHT22;27407;24.142;-110.310;2024-03-02T11:38:15;14.40;99.90
41722;DHT22;27407;24.142;-110.310;2024-03-02T11:40:42;14.40;99.90
41722;DHT22;27407;24.142;-110.310;2024-03-02T11:43:09;14.30;99.90
41722;DHT22;27407;24.142;-110.310;2024-03-02T11:45:36;14.30;99.90
41722;DHT22;27407;24.142;-110.310;2024-03-02T11:48:10;14.20;99.90
41722;DHT22;27407;24.142;-110.310;2024-03-02T11:50:50;14.20;99.90
41722;DHT22;27407;24.142;-110.310;2024-03-02T11:53:17;14.10;99.90
41722;DHT22;27407;24.142;-110.310;2024-03-02T11:55:45;14.10;99.90
41722;DHT22;27407;24.142;-110.310;2024-03-02T11:58:13;14.10;99.90
41722;DHT22;27407;24.142;-110.310;2024-03-02T12:00:40;14.10;99.90
41722;DHT22;27407;24.142;-110.310;2024-03-02T12:03:08;14.10;99.90
41722;DHT22;27407;24.142;-110.310;2024-03-02T12:05:35;14.10;99.90
41722;DHT22;27407;24.142;-110.310;2024-03-02T12:08:04;14.10;99.90
41722;DHT22;27407;24.142;-110.310;2024-03-02T12:10:31;14.20;99.90
41722;DHT22;27407;24.142;-110.310;2024-03-02T12:12:59;14.20;99.90
41722;DHT22;27407;24.142;-110.310;2024-03-02T12:15:28;14.30;99.90
41722;DHT22;27407;24.142;-110.310;2024-03-02T12:17:59;14.20;99.90
41722;DHT22;27407;24.142;-110.310;2024-03-02T12:20:28;14.20;99.90
41722;DHT22;27407;24.142;-110.310;2024-03-02T12:22:57;14.10;99.90
41722;DHT22;27407;24.142;-110.310;2024-03-02T12:25:25;14.20;99.90
41722;DHT22;27407;24.142;-110.310;2024-03-02T12:27:56;14.30;99.90
41722;DHT22;27407;24.142;-110.310;2024-03-02T12:30:23;14.30;99.90
41722;DHT22;27407;24.142;-110.310;2024-03-02T12:32:50;14.40;99.90
41722;DHT22;27407;24.142;-110.310;2024-03-02T12:35:18;14.40;99.90
41722;DHT22;27407;24.142;-110.310;2024-03-02T12:37:46;14.40;99.90
41722;DHT22;27407;24.142;-110.310;2024-03-02T12:40:14;14.40;99.90
41722;DHT22;27407;24.142;-110.310;2024-03-02T12:42:41;14.50;99.90
41722;DHT22;27407;24.142;-110.310;2024-03-02T12:45:08;14.50;99.90
41722;DHT22;27407;24.142;-110.310;2024-03-02T12:47:35;14.50;99.90
41722;DHT22;27407;24.142;-110.310;2024-03-02T12:50:04;14.50;99.90
41722;DHT22;27407;24.142;-110.310;2024-03-02T12:52:30;14.60;99.90
41722;DHT22;27407;24.142;-110.310;2024-03-02T12:55:01;14.60;99.90
41722;DHT22;27407;24.142;-110.310;2024-03-02T12:57:33;14.60;99.90
41722;DHT22;27407;24.142;-110.310;2024-03-02T13:00:04;14.70;99.90
41722;DHT22;27407;24.142;-110.310;2024-03-02T13:02:40;14.70;99.90
41722;DHT22;27407;24.142;-110.310;2024-03-02T13:05:08;14.80;99.90
41722;DHT22;27407;24.142;-110.310;2024-03-02T13:07:38;14.80;99.90
41722;DHT22;27407;24.142;-110.310;2024-03-02T13:10:08;14.80;99.90
41722;DHT22;27407;24.142;-110.310;2024-03-02T13:12:36;14.80;99.90
41722;DHT22;27407;24.142;-110.310;2024-03-02T13:15:03;14.90;99.90
41722;DHT22;27407;24.142;-110.310;2024-03-02T13:17:31;15.00;99.90
41722;DHT22;27407;24.142;-110.310;2024-03-02T13:20:00;15.00;99.90
41722;DHT22;27407;24.142;-110.310;2024-03-02T13:22:27;15.00;99.90
41722;DHT22;27407;24.142;-110.310;2024-03-02T13:24:54;14.90;99.90
41722;DHT22;27407;24.142;-110.310;2024-03-02T13:27:21;14.70;99.90
41722;DHT22;27407;24.142;-110.310;2024-03-02T13:29:48;14.50;99.90
41722;DHT22;27407;24.142;-110.310;2024-03-02T13:32:15;14.40;99.90
41722;DHT22;27407;24.142;-110.310;2024-03-02T13:34:42;14.40;99.90
41722;DHT22;27407;24.142;-110.310;2024-03-02T13:37:09;14.30;99.90
41722;DHT22;27407;24.142;-110.310;2024-03-02T13:39:36;14.30;99.90
41722;DHT22;27407;24.142;-110.310;2024-03-02T13:42:11;14.20;99.90
41722;DHT22;27407;24.142;-110.310;2024-03-02T13:44:41;14.20;99.90
41722;DHT22;27407;24.142;-110.310;2024-03-02T13:47:10;14.10;99.90
41722;DHT22;27407;24.142;-110.310;2024-03-02T13:49:36;14.00;99.90
41722;DHT22;27407;24.142;-110.310;2024-03-02T13:52:06;14.00;99.90
41722;DHT22;27407;24.142;-110.310;2024-03-02T13:54:44;13.90;99.90
41722;DHT22;27407;24.142;-110.310;2024-03-02T13:57:11;13.80;99.90
41722;DHT22;27407;24.142;-110.310;2024-03-02T13:59:39;13.80;99.90
41722;DHT22;27407;24.142;-110.310;2024-03-02T14:02:06;13.80;99.90
41722;DHT22;27407;24.142;-110.310;2024-03-02T14:04:37;13.90;99.90
41722;DHT22;27407;24.142;-110.310;2024-03-02T14:07:05;13.90;99.90
41722;DHT22;27407;24.142;-110.310;2024-03-02T14:09:35;14.00;99.90
41722;DHT22;27407;24.142;-110.310;2024-03-02T14:12:02;14.10;99.90
41722;DHT22;27407;24.142;-110.310;2024-03-02T14:14:29;14.20;99.90
41722;DHT22;27407;24.142;-110.310;2024-03-02T14:16:56;14.30;99.90
41722;DHT22;27407;24.142;-110.310;2024-03-02T14:19:26;14.30;99.90
41722;DHT22;27407;24.142;-110.310;2024-03-02T14:21:53;14.50;99.90
41722;DHT22;27407;24.142;-110.310;2024-03-02T14:24:20;14.60;99.90
41722;DHT22;27407;24.142;-110.310;2024-03-02T14:26:50;14.80;99.90
41722;DHT22;27407;24.142;-110.310;2024-03-02T14:29:16;14.90;99.90
41722;DHT22;27407;24.142;-110.310;2024-03-02T14:31:44;15.10;99.90
41722;DHT22;27407;24.142;-110.310;2024-03-02T14:34:16;15.20;99.90
41722;DHT22;27407;24.142;-110.310;2024-03-02T14:36:43;15.30;99.90
41722;DHT22;27407;24.142;-110.310;2024-03-02T14:39:11;15.30;99.90
41722;DHT22;27407;24.142;-110.310;2024-03-02T14:41:37;15.40;99.90
41722;DHT22;27407;24.142;-110.310;2024-03-02T14:44:04;15.60;99.90
41722;DHT22;27407;24.142;-110.310;2024-03-02T14:46:31;15.80;99.90
41722;DHT22;27407;24.142;-110.310;2024-03-02T14:48:57;15.90;99.90
41722;DHT22;27407;24.142;-110.310;2024-03-02T14:51:24;16.00;99.90
41722;DHT22;27407;24.142;-110.310;2024-03-02T14:53:51;16.20;99.90
41722;DHT22;27407;24.142;-110.310;2024-03-02T14:56:18;16.40;99.90
41722;DHT22;27407;24.142;-110.310;2024-03-02T14:58:44;16.50;99.90